Time;durP1;ratioP1;P1;durP2;ratioP2;P2;SDS_P1;SDS_P2;PMS_P1;PMS_P2;Temp;Humidity;BMP_temperature;BMP_pressure;BME280_temperature;BME280_humidity;BME280_pressure;Samples;Min_cycle;Max_cycle;Signal;HPM_P1;HPM_P2
2021/07/06 00:00:35;;;;;;;6.50;4.82;;;18.40;99.90;;;;;;4176112;28;20033;-61
2021/07/06 00:02:36;;;;;;;7.95;4.47;;;18.40;99.90;;;;;;4174585;28;20102;-61
2021/07/06 00:04:37;;;;;;;8.35;5.05;;;18.40;99.90;;;;;;4174637;28;20661;-61
2021/07/06 00:06:39;;;;;;;5.10;4.63;;;18.40;99.90;;;;;;4174620;28;20041;-61
2021/07/06 00:08:40;;;;;;;5.70;4.45;;;18.30;99.90;;;;;;4175118;28;20047;-61
2021/07/06 00:10:41;;;;;;;15.95;4.82;;;18.30;99.90;;;;;;4174854;28;20033;-61
2021/07/06 00:12:42;;;;;;;6.93;4.72;;;18.30;99.90;;;;;;4176167;28;20033;-61
2021/07/06 00:14:45;;;;;;;5.18;4.45;;;18.30;99.90;;;;;;4175655;28;20090;-61
2021/07/06 00:16:46;;;;;;;5.90;4.78;;;18.30;99.90;;;;;;4175511;28;20539;-61
2021/07/06 00:18:47;;;;;;;8.00;4.75;;;18.20;99.90;;;;;;4174544;28;20029;-61
2021/07/06 00:20:48;;;;;;;5.28;4.75;;;18.20;99.90;;;;;;4175387;28;20547;-61
2021/07/06 00:22:49;;;;;;;9.10;4.82;;;18.20;99.90;;;;;;4174268;28;20071;-61
2021/07/06 00:24:50;;;;;;;6.10;4.32;;;18.20;99.90;;;;;;4174708;28;20037;-61
2021/07/06 00:26:51;;;;;;;10.05;5.65;;;18.20;99.90;;;;;;4175244;28;20037;-61
2021/07/06 00:28:53;;;;;;;6.78;5.15;;;18.20;99.90;;;;;;4174373;28;20040;-61
2021/07/06 00:30:54;;;;;;;9.23;4.78;;;18.20;99.90;;;;;;4175107;28;20045;-61
2021/07/06 00:32:56;;;;;;;10.32;6.07;;;18.20;99.90;;;;;;4174174;28;20052;-61
2021/07/06 00:34:57;;;;;;;7.88;4.65;;;18.20;99.90;;;;;;4175398;28;20029;-61
2021/07/06 00:36:59;;;;;;;8.63;4.28;;;18.20;99.90;;;;;;4174065;28;20045;-61
2021/07/06 00:39:00;;;;;;;8.57;5.30;;;18.20;99.90;;;;;;4188360;28;20158;-61
2021/07/06 00:41:02;;;;;;;7.55;4.53;;;18.20;99.90;;;;;;4190359;28;20071;-60
2021/07/06 00:43:03;;;;;;;6.63;4.78;;;18.10;99.90;;;;;;4192197;28;20029;-62
2021/07/06 00:45:05;;;;;;;5.40;4.70;;;18.10;99.90;;;;;;4191232;28;20492;-61
2021/07/06 00:47:06;;;;;;;6.30;5.00;;;18.10;99.90;;;;;;4192190;28;20036;-61
2021/07/06 00:49:09;;;;;;;7.75;5.15;;;18.10;99.90;;;;;;4190878;28;20020;-61
2021/07/06 00:51:10;;;;;;;6.53;5.50;;;18.00;99.90;;;;;;4189337;28;20033;-61
2021/07/06 00:53:11;;;;;;;5.47;4.65;;;18.00;99.90;;;;;;4188958;28;20098;-61
2021/07/06 00:55:13;;;;;;;5.20;4.50;;;18.00;99.90;;;;;;4190336;28;20427;-61
2021/07/06 00:57:14;;;;;;;6.32;5.07;;;18.00;99.90;;;;;;4191181;28;20013;-61
2021/07/06 00:59:15;;;;;;;5.90;4.93;;;18.00;99.90;;;;;;4190434;28;20475;-61
2021/07/06 01:01:17;;;;;;;7.05;5.43;;;18.00;99.90;;;;;;4178698;28;20053;-61
2021/07/06 01:03:18;;;;;;;5.28;4.72;;;18.00;99.90;;;;;;4190052;28;20806;-61
2021/07/06 01:05:24;;;;;;;7.72;4.90;;;17.90;99.90;;;;;;4186992;28;20609;-61
2021/07/06 01:07:26;;;;;;;5.63;4.90;;;17.90;99.90;;;;;;4174281;28;20133;-61
2021/07/06 01:09:27;;;;;;;6.00;4.90;;;17.90;99.90;;;;;;4174564;28;20578;-61
2021/07/06 01:11:28;;;;;;;5.82;4.93;;;17.90;99.90;;;;;;4173979;28;20770;-61
2021/07/06 01:13:30;;;;;;;6.97;4.90;;;17.80;99.90;;;;;;4179597;28;20105;-61
2021/07/06 01:15:32;;;;;;;7.55;5.05;;;17.80;99.90;;;;;;4190342;28;20032;-62
2021/07/06 01:17:34;;;;;;;6.63;5.07;;;17.80;99.90;;;;;;4191203;28;20098;-61
2021/07/06 01:19:37;;;;;;;7.60;5.38;;;17.80;99.90;;;;;;4188532;28;20044;-59
2021/07/06 01:21:38;;;;;;;6.28;4.93;;;17.80;99.90;;;;;;4175801;28;20454;-61
2021/07/06 01:23:39;;;;;;;10.27;4.90;;;17.80;99.90;;;;;;4173410;28;20032;-61
2021/07/06 01:25:41;;;;;;;5.28;4.78;;;17.80;99.90;;;;;;4190495;28;20492;-61
2021/07/06 01:27:43;;;;;;;6.82;5.03;;;17.80;99.90;;;;;;4186539;28;20071;-61
2021/07/06 01:29:44;;;;;;;5.57;5.03;;;17.80;99.90;;;;;;4173989;28;20049;-61
2021/07/06 01:31:49;;;;;;;6.28;4.90;;;17.70;99.90;;;;;;4187764;28;20090;-61
2021/07/06 01:33:55;;;;;;;7.63;5.30;;;17.70;99.90;;;;;;4190044;28;20032;-61
2021/07/06 01:36:08;;;;;;;7.43;5.38;;;17.70;99.90;;;;;;4191391;28;20028;-61
2021/07/06 01:38:09;;;;;;;13.00;6.68;;;17.70;99.90;;;;;;4174671;28;20041;-61
2021/07/06 01:40:11;;;;;;;5.53;4.95;;;17.70;99.90;;;;;;4174429;28;20091;-61
2021/07/06 01:42:20;;;;;;;5.88;5.20;;;17.70;99.90;;;;;;4173154;28;20025;-61
2021/07/06 01:44:26;;;;;;;7.30;5.40;;;17.70;99.90;;;;;;4184611;28;20089;-61
2021/07/06 01:46:28;;;;;;;9.63;4.70;;;17.70;99.90;;;;;;4189885;28;20489;-61
2021/07/06 01:48:29;;;;;;;5.82;5.22;;;17.60;99.90;;;;;;4190871;28;20044;-61
2021/07/06 01:50:36;;;;;;;10.05;6.45;;;17.60;99.90;;;;;;4184174;28;20423;-60
2021/07/06 01:52:44;;;;;;;6.40;4.97;;;17.60;99.90;;;;;;4180267;28;20041;-61
2021/07/06 01:54:46;;;;;;;8.77;5.28;;;17.60;99.90;;;;;;4173082;28;20485;-61
2021/07/06 01:56:48;;;;;;;9.77;5.38;;;17.60;99.90;;;;;;4174898;28;20090;-61
2021/07/06 01:58:49;;;;;;;8.40;4.90;;;17.60;99.90;;;;;;4172928;28;20044;-60
2021/07/06 02:00:54;;;;;;;6.65;5.05;;;17.60;99.90;;;;;;4178998;28;20046;-61
2021/07/06 02:02:56;;;;;;;6.95;5.25;;;17.60;99.90;;;;;;4172623;28;20517;-60
2021/07/06 02:05:03;;;;;;;9.00;5.25;;;17.60;99.90;;;;;;4174260;28;20037;-61
2021/07/06 02:07:04;;;;;;;5.65;5.05;;;17.60;99.90;;;;;;4177410;28;20025;-61
2021/07/06 02:09:06;;;;;;;8.50;5.82;;;17.60;99.90;;;;;;4189763;28;20078;-61
2021/07/06 02:11:08;;;;;;;5.97;5.05;;;17.60;99.90;;;;;;4189456;28;20033;-61
2021/07/06 02:13:15;;;;;;;5.72;4.75;;;17.60;99.90;;;;;;4188961;28;20045;-61
2021/07/06 02:15:16;;;;;;;6.38;5.20;;;17.60;99.90;;;;;;4177924;28;20447;-61
2021/07/06 02:17:17;;;;;;;5.68;4.95;;;17.60;99.90;;;;;;4189773;28;20021;-61
2021/07/06 02:19:19;;;;;;;6.07;5.15;;;17.50;99.90;;;;;;4181287;28;20119;-61
2021/07/06 02:21:20;;;;;;;6.03;5.40;;;17.50;99.90;;;;;;4173597;28;20571;-61
2021/07/06 02:23:22;;;;;;;9.07;5.22;;;17.50;99.90;;;;;;4174926;28;20865;-61
2021/07/06 02:25:24;;;;;;;9.32;5.50;;;17.60;99.90;;;;;;4188485;28;20105;-61
2021/07/06 02:27:26;;;;;;;6.95;5.03;;;17.60;99.90;;;;;;4189766;28;20020;-61
2021/07/06 02:29:27;;;;;;;9.30;5.35;;;17.60;99.90;;;;;;4188711;28;20804;-61
2021/07/06 02:31:28;;;;;;;7.95;5.07;;;17.50;99.90;;;;;;4185430;28;20099;-61
2021/07/06 02:33:34;;;;;;;8.20;5.05;;;17.60;99.90;;;;;;4189081;28;20063;-61
2021/07/06 02:35:36;;;;;;;6.57;5.10;;;17.50;99.90;;;;;;4189875;28;20086;-61
2021/07/06 02:37:38;;;;;;;8.02;5.30;;;17.50;99.90;;;;;;4177418;28;20033;-61
2021/07/06 02:39:39;;;;;;;7.38;5.30;;;17.50;99.90;;;;;;4174441;28;20059;-62
2021/07/06 02:41:40;;;;;;;8.20;5.95;;;17.50;99.90;;;;;;4188283;28;20032;-61
2021/07/06 02:43:41;;;;;;;6.32;5.20;;;17.50;99.90;;;;;;4185317;28;20032;-61
2021/07/06 02:45:45;;;;;;;8.85;5.28;;;17.50;99.90;;;;;;4180612;28;20044;-61
2021/07/06 02:47:47;;;;;;;7.90;5.53;;;17.40;99.90;;;;;;4195599;28;20045;-61
2021/07/06 02:49:48;;;;;;;9.57;5.88;;;17.40;99.90;;;;;;4178978;28;20037;-61
2021/07/06 02:51:49;;;;;;;9.52;5.95;;;17.40;99.90;;;;;;4176157;28;20040;-61
2021/07/06 02:53:50;;;;;;;5.90;5.22;;;17.50;99.90;;;;;;4188769;28;20534;-61
2021/07/06 02:55:51;;;;;;;11.18;5.88;;;17.60;99.90;;;;;;4187202;28;20044;-61
2021/07/06 02:57:53;;;;;;;8.13;5.22;;;17.70;99.90;;;;;;4189142;28;20477;-61
2021/07/06 02:59:54;;;;;;;9.50;5.97;;;17.80;99.90;;;;;;4188398;28;20044;-62
2021/07/06 03:01:55;;;;;;;6.97;5.70;;;17.90;99.90;;;;;;4189902;28;20082;-61
2021/07/06 03:03:57;;;;;;;6.40;5.15;;;18.10;99.90;;;;;;4188517;28;20101;-60
2021/07/06 03:05:58;;;;;;;8.75;5.93;;;18.20;99.90;;;;;;4175075;28;20398;-61
2021/07/06 03:08:00;;;;;;;6.88;5.22;;;18.40;99.90;;;;;;4172627;28;20044;-61
2021/07/06 03:10:04;;;;;;;11.75;5.07;;;18.50;99.90;;;;;;4173353;28;20056;-61
2021/07/06 03:12:06;;;;;;;7.13;4.75;;;18.70;99.90;;;;;;4172007;28;20586;-61
2021/07/06 03:14:07;;;;;;;10.00;6.07;;;18.70;99.90;;;;;;4175719;28;20083;-61
2021/07/06 03:16:10;;;;;;;7.32;4.88;;;18.80;99.90;;;;;;4188412;28;20017;-61
2021/07/06 03:18:11;;;;;;;11.15;5.38;;;19.10;99.90;;;;;;4189512;28;20082;-60
2021/07/06 03:20:15;;;;;;;6.75;5.45;;;19.30;99.90;;;;;;4188710;28;20025;-62
2021/07/06 03:22:16;;;;;;;9.43;5.68;;;19.40;99.90;;;;;;4180676;28;20033;-61
2021/07/06 03:24:17;;;;;;;9.48;5.38;;;19.60;99.90;;;;;;4177973;28;20102;-61
2021/07/06 03:26:18;;;;;;;6.50;4.95;;;19.80;99.90;;;;;;4188350;28;20415;-61
2021/07/06 03:28:19;;;;;;;6.65;5.20;;;19.90;99.90;;;;;;4189093;28;20032;-60
2021/07/06 03:30:23;;;;;;;5.53;4.43;;;20.00;99.90;;;;;;4173131;28;20021;-61
2021/07/06 03:32:24;;;;;;;9.07;5.28;;;20.20;99.90;;;;;;4172244;28;20539;-61
2021/07/06 03:34:26;;;;;;;7.15;4.88;;;20.50;99.90;;;;;;4171884;28;20079;-60
2021/07/06 03:36:28;;;;;;;5.63;4.63;;;20.70;99.90;;;;;;4188896;28;20028;-61
2021/07/06 03:38:29;;;;;;;8.32;5.00;;;20.80;99.90;;;;;;4188206;28;20021;-61
2021/07/06 03:40:32;;;;;;;7.55;5.15;;;21.10;99.90;;;;;;4179395;28;20041;-61
2021/07/06 03:42:33;;;;;;;7.60;4.97;;;21.30;99.90;;;;;;4175159;28;20089;-62
2021/07/06 03:44:35;;;;;;;7.05;4.97;;;21.50;99.90;;;;;;4179488;28;20077;-62
2021/07/06 03:46:36;;;;;;;10.02;5.50;;;21.70;99.90;;;;;;4186655;28;20097;-61
2021/07/06 03:48:37;;;;;;;5.65;4.70;;;21.80;99.90;;;;;;4189353;28;20923;-61
2021/07/06 03:50:38;;;;;;;6.78;4.57;;;22.10;99.90;;;;;;4187086;28;20052;-62
2021/07/06 03:52:39;;;;;;;7.90;4.53;;;22.30;99.90;;;;;;4188681;28;20029;-61
2021/07/06 03:54:41;;;;;;;7.10;4.32;;;22.30;99.90;;;;;;4184935;28;20106;-61
2021/07/06 03:56:42;;;;;;;6.70;4.40;;;22.60;99.90;;;;;;4171794;28;21001;-62
2021/07/06 03:58:43;;;;;;;6.35;4.57;;;22.70;99.90;;;;;;4172325;28;20439;-62
2021/07/06 04:00:44;;;;;;;6.45;4.43;;;22.90;99.90;;;;;;4179778;28;20037;-63
2021/07/06 04:02:45;;;;;;;7.88;4.45;;;23.30;99.90;;;;;;4184038;28;20029;-61
2021/07/06 04:04:47;;;;;;;4.72;4.22;;;23.70;99.90;;;;;;4187793;28;20040;-61
2021/07/06 04:06:48;;;;;;;5.05;4.35;;;24.10;99.90;;;;;;4189341;28;20048;-61
2021/07/06 04:08:49;;;;;;;7.35;4.10;;;24.60;99.90;;;;;;4186368;28;20044;-61
2021/07/06 04:10:50;;;;;;;6.10;4.20;;;25.10;99.90;;;;;;4188466;28;20036;-61
2021/07/06 04:12:51;;;;;;;6.15;4.15;;;25.30;99.90;;;;;;4186140;28;20024;-60
2021/07/06 04:14:52;;;;;;;7.07;3.75;;;25.50;99.70;;;;;;4188902;28;20029;-60
2021/07/06 04:16:54;;;;;;;4.90;4.20;;;25.70;99.10;;;;;;4187236;28;20051;-62
2021/07/06 04:18:55;;;;;;;7.18;4.60;;;26.20;98.80;;;;;;4188580;28;20173;-62
2021/07/06 04:20:56;;;;;;;6.53;4.00;;;26.60;97.70;;;;;;4187805;28;20078;-62
2021/07/06 04:22:57;;;;;;;5.25;3.80;;;26.90;97.30;;;;;;4188315;28;20416;-62
2021/07/06 04:24:58;;;;;;;9.73;3.58;;;27.20;96.70;;;;;;4187958;28;20070;-62
2021/07/06 04:27:00;;;;;;;5.70;4.20;;;27.40;96.00;;;;;;4175826;28;20099;-62
2021/07/06 04:29:01;;;;;;;7.25;4.20;;;27.70;95.50;;;;;;4171591;28;20025;-62
2021/07/06 04:31:02;;;;;;;6.93;3.90;;;27.90;94.80;;;;;;4172587;28;20057;-62
2021/07/06 04:33:03;;;;;;;10.02;3.85;;;27.90;94.30;;;;;;4179516;28;20481;-62
2021/07/06 04:35:06;;;;;;;4.65;3.95;;;28.00;93.90;;;;;;4174456;28;20033;-62
2021/07/06 04:37:07;;;;;;;4.72;3.85;;;28.10;93.50;;;;;;4174964;28;20552;-62
2021/07/06 04:39:08;;;;;;;5.68;4.03;;;28.30;93.30;;;;;;4173852;28;20543;-62
2021/07/06 04:41:09;;;;;;;7.88;3.90;;;28.50;92.80;;;;;;4174812;28;20075;-62
2021/07/06 04:43:10;;;;;;;6.13;4.40;;;28.70;92.60;;;;;;4173415;28;20444;-62
2021/07/06 04:45:12;;;;;;;5.68;3.50;;;29.10;92.10;;;;;;4189432;28;20089;-62
2021/07/06 04:47:14;;;;;;;6.25;4.20;;;29.40;91.40;;;;;;4189527;28;20024;-61
2021/07/06 04:49:15;;;;;;;6.22;3.60;;;29.40;90.90;;;;;;4191074;28;20036;-62
2021/07/06 04:51:16;;;;;;;10.43;4.75;;;29.60;90.60;;;;;;4189457;28;20549;-62
2021/07/06 04:53:18;;;;;;;5.72;3.97;;;29.70;90.00;;;;;;4190493;28;20082;-61
2021/07/06 04:55:20;;;;;;;7.38;4.00;;;29.90;89.30;;;;;;4189810;28;20024;-62
2021/07/06 04:57:21;;;;;;;4.70;3.85;;;;;;;;;;4189216;28;20162;-60
2021/07/06 04:59:23;;;;;;;6.25;3.92;;;;;;;;;;4188572;28;20510;-61
2021/07/06 05:01:24;;;;;;;4.47;3.75;;;;;;;;;;4189343;28;20036;-62
2021/07/06 05:03:28;;;;;;;6.40;3.90;;;;;;;;;;4190983;28;20395;-61
2021/07/06 05:05:30;;;;;;;9.80;4.78;;;;;;;;;;4189280;28;20024;-60
2021/07/06 05:07:32;;;;;;;6.10;3.83;;;;;;;;;;4190576;28;20105;-61
2021/07/06 05:09:33;;;;;;;7.00;4.38;;;;;;;;;;4189276;28;20079;-61
2021/07/06 05:11:35;;;;;;;4.22;3.80;;;;;;;;;;4191127;28;20427;-60
2021/07/06 05:13:37;;;;;;;4.93;3.95;;;;;;;;;;4189768;28;20081;-60
2021/07/06 05:15:38;;;;;;;5.75;4.57;;;;;;;;;;4190842;28;20443;-61
2021/07/06 05:17:39;;;;;;;5.13;4.28;;;;;;;;;;4189666;28;20078;-61
2021/07/06 05:19:41;;;;;;;4.50;3.70;;;;;;;;;;4191111;28;20036;-61
2021/07/06 05:21:42;;;;;;;8.95;3.80;;;;;;;;;;4189302;28;20094;-60
2021/07/06 05:23:44;;;;;;;8.75;3.53;;;;;;;;;;4190961;28;20016;-61
2021/07/06 05:25:46;;;;;;;5.55;3.53;;;;;;;;;;4189604;28;20408;-60
2021/07/06 05:27:47;;;;;;;6.80;3.90;;;;;;;;;;4190540;28;20032;-61
2021/07/06 05:29:49;;;;;;;5.50;4.13;;;;;;;;;;4190169;28;20101;-61
2021/07/06 05:31:50;;;;;;;6.13;3.63;;;;;;;;;;4189729;28;20470;-61
2021/07/06 05:33:53;;;;;;;5.18;3.88;;;;;;;;;;4190210;28;20056;-61
2021/07/06 05:35:54;;;;;;;6.53;4.63;;;;;;;;;;4188073;28;20041;-62
2021/07/06 05:37:55;;;;;;;4.22;3.80;;;;;;;;;;4189863;28;20025;-62
2021/07/06 05:39:57;;;;;;;3.92;3.50;;;;;;;;;;4189328;28;20041;-61
2021/07/06 05:41:58;;;;;;;10.80;3.97;;;;;;;;;;4190384;28;20044;-61
2021/07/06 05:44:00;;;;;;;4.95;3.60;;;;;;;;;;4189512;28;20469;-61
2021/07/06 05:46:01;;;;;;;4.05;3.28;;;;;;;;;;4190890;28;20424;-60
2021/07/06 05:48:03;;;;;;;7.00;3.72;;;;;;;;;;4189137;28;20016;-61
2021/07/06 05:50:06;;;;;;;5.18;3.97;;;;;;;;;;4190755;28;20078;-61
2021/07/06 05:52:07;;;;;;;5.68;3.72;;;;;;;;;;4189106;28;20416;-61
2021/07/06 05:54:09;;;;;;;4.22;3.55;;;;;;;;;;4190393;28;20473;-61
2021/07/06 05:56:10;;;;;;;4.28;3.75;;;;;;;;;;4189406;28;20025;-61
2021/07/06 05:58:12;;;;;;;4.75;3.60;;;;;;;;;;4190407;28;20042;-62
2021/07/06 06:00:14;;;;;;;4.97;3.90;;;;;;;;;;4189705;28;20056;-61
2021/07/06 06:02:16;;;;;;;7.10;4.68;;;;;;;;;;4189545;28;20033;-61
2021/07/06 06:04:17;;;;;;;6.95;3.83;;;;;;;;;;4189988;28;20097;-62
2021/07/06 06:06:18;;;;;;;5.80;3.55;;;;;;;;;;4189046;28;20032;-62
2021/07/06 06:08:20;;;;;;;5.43;3.35;;;;;;;;;;4189942;28;20099;-61
2021/07/06 06:10:21;;;;;;;5.32;3.67;;;;;;;;;;4189340;28;20825;-62
2021/07/06 06:12:23;;;;;;;7.82;3.67;;;;;;;;;;4189934;28;20105;-61
2021/07/06 06:14:24;;;;;;;7.10;4.78;;;;;;;;;;4188916;28;20029;-60
2021/07/06 06:16:25;;;;;;;9.75;4.65;;;;;;;;;;4189750;28;20058;-62
2021/07/06 06:18:27;;;;;;;5.78;3.83;;;;;;;;;;4188929;28;20036;-61
2021/07/06 06:20:29;;;;;;;10.38;3.75;;;;;;;;;;4190102;28;20896;-61
2021/07/06 06:22:30;;;;;;;5.07;4.03;;;;;;;;;;4187081;28;20041;-62
2021/07/06 06:24:32;;;;;;;7.15;3.85;;;;;;;;;;4189650;28;20082;-62
2021/07/06 06:26:33;;;;;;;7.80;4.18;;;;;;;;;;4188522;28;20476;-62
2021/07/06 06:28:36;;;;;;;6.05;3.75;;;;;;;;;;4189582;28;20434;-62
2021/07/06 06:30:37;;;;;;;6.63;4.45;;;;;;;;;;4188480;28;20048;-61
2021/07/06 06:32:39;;;;;;;6.85;4.15;;;;;;;;;;4189629;28;20117;-61
2021/07/06 06:34:40;;;;;;;7.82;3.95;;;;;;;;;;4188638;28;20556;-62
2021/07/06 06:36:41;;;;;;;5.57;3.70;;;;;;;;;;4187256;28;20071;-61
2021/07/06 06:38:43;;;;;;;7.18;4.03;;;;;;;;;;4188870;28;20485;-61
2021/07/06 06:40:44;;;;;;;6.28;4.30;;;;;;;;;;4188485;28;20106;-61
2021/07/06 06:42:46;;;;;;;4.53;4.10;;;;;;;;;;4188351;28;20032;-61
2021/07/06 06:44:47;;;;;;;5.78;4.28;;;;;;;;;;4189235;28;20033;-61
2021/07/06 06:46:48;;;;;;;5.53;3.97;;;;;;;;;;4189851;28;20443;-61
2021/07/06 06:48:50;;;;;;;5.93;3.95;;;;;;;;;;4188190;28;20086;-61
2021/07/06 06:50:51;;;;;;;7.10;4.63;;;;;;;;;;4189772;28;20029;-61
2021/07/06 06:52:53;;;;;;;7.57;4.25;;;;;;;;;;4187050;28;20082;-61
2021/07/06 06:54:54;;;;;;;9.32;4.22;;;;;;;;;;4188475;28;20094;-61
2021/07/06 06:56:55;;;;;;;8.40;4.45;;;;;;;;;;4187783;28;20036;-61
2021/07/06 06:58:57;;;;;;;10.18;4.53;;;;;;;;;;4189178;28;20072;-61
2021/07/06 07:00:58;;;;;;;6.80;4.20;;;;;;;;;;4188235;28;20086;-60
2021/07/06 07:02:59;;;;;;;5.22;3.63;;;;;;;;;;4189045;28;20430;-59
2021/07/06 07:05:01;;;;;;;3.88;3.40;;;;;;;;;;4188325;28;20361;-61
2021/07/06 07:07:02;;;;;;;3.45;3.15;;;;;;;;;;4188147;28;20770;-61
2021/07/06 07:09:07;;;;;;;5.72;3.38;;;;;;;;;;4188920;28;20059;-60
2021/07/06 07:11:08;;;;;;;4.53;3.83;;;;;;;;;;4188515;28;20049;-61
2021/07/06 07:13:10;;;;;;;3.95;3.58;;;;;;;;;;4188917;28;20106;-61
2021/07/06 07:15:14;;;;;;;6.18;3.80;;;;;;;;;;4188274;28;20036;-61
2021/07/06 07:17:15;;;;;;;7.22;3.05;;;;;;;;;;4189278;28;20106;-61
2021/07/06 07:19:17;;;;;;;5.38;3.35;;;;;;;;;;4187864;28;20044;-61
2021/07/06 07:21:19;;;;;;;3.90;3.53;;;;;;;;;;4189463;28;20113;-60
2021/07/06 07:23:20;;;;;;;10.27;5.18;;;;;;;;;;4187691;28;20769;-61
2021/07/06 07:25:21;;;;;;;16.40;4.55;;;;;;;;;;4189505;28;20033;-61
2021/07/06 07:27:23;;;;;;;5.88;3.22;;;;;;;;;;4188188;28;20558;-61
2021/07/06 07:29:24;;;;;;;4.60;2.97;;;;;;;;;;4189394;28;20427;-61
2021/07/06 07:31:26;;;;;;;4.43;3.40;;;;;;;;;;4187826;28;20036;-61
2021/07/06 07:33:27;;;;;;;4.18;3.67;;;;;;;;;;4188934;28;20488;-60
2021/07/06 07:35:29;;;;;;;5.50;3.38;;;;;;;;;;4187616;28;20089;-61
2021/07/06 07:37:30;;;;;;;17.20;4.63;;;;;;;;;;4188812;28;20036;-61
2021/07/06 07:39:33;;;;;;;11.20;4.13;;;29.90;88.50;;;;;;4188359;28;20098;-61
2021/07/06 07:41:35;;;;;;;8.18;3.75;;;29.70;77.50;;;;;;4188440;28;20523;-60
2021/07/06 07:43:36;;;;;;;11.68;5.07;;;29.60;77.30;;;;;;4188360;28;20090;-60
2021/07/06 07:45:38;;;;;;;8.27;4.07;;;29.70;77.40;;;;;;4188407;28;20110;-61
2021/07/06 07:47:39;;;;;;;5.80;4.55;;;29.70;76.70;;;;;;4189120;28;20455;-61
2021/07/06 07:49:40;;;;;;;5.75;4.03;;;29.70;76.40;;;;;;4187824;28;20029;-61
2021/07/06 07:51:42;;;;;;;7.50;3.80;;;29.70;76.50;;;;;;4189020;28;20059;-61
2021/07/06 07:53:44;;;;;;;6.32;3.47;;;29.60;76.60;;;;;;4187719;28;20566;-61
2021/07/06 07:55:46;;;;;;;10.48;3.63;;;29.30;76.30;;;;;;4189114;28;20117;-61
2021/07/06 07:57:47;;;;;;;8.25;3.67;;;29.20;76.80;;;;;;4187354;28;20058;-62
2021/07/06 07:59:51;;;;;;;7.93;4.15;;;29.10;76.80;;;;;;4188537;28;20041;-62
2021/07/06 08:01:52;;;;;;;3.70;3.33;;;29.20;76.90;;;;;;4186888;28;20066;-61
2021/07/06 08:03:53;;;;;;;6.47;3.35;;;29.30;76.50;;;;;;4186721;28;20064;-62
2021/07/06 08:05:57;;;;;;;3.33;3.03;;;29.30;76.20;;;;;;4189218;28;20078;-62
2021/07/06 08:07:58;;;;;;;5.47;3.10;;;29.30;75.70;;;;;;4191384;28;20028;-61
2021/07/06 08:09:59;;;;;;;5.57;3.22;;;29.30;75.40;;;;;;4191049;28;20036;-61
2021/07/06 08:12:00;;;;;;;5.88;3.45;;;29.30;75.10;;;;;;4191432;28;20070;-60
2021/07/06 08:14:01;;;;;;;6.45;3.75;;;28.90;75.30;;;;;;4191258;28;20082;-61
2021/07/06 08:16:03;;;;;;;6.93;3.85;;;28.50;76.30;;;;;;4190228;28;20074;-62
2021/07/06 08:18:04;;;;;;;11.73;3.72;;;28.40;76.80;;;;;;4192363;28;20078;-61
2021/07/06 08:20:06;;;;;;;9.32;4.35;;;28.50;77.40;;;;;;4190409;28;20098;-62
2021/07/06 08:22:07;;;;;;;4.63;3.63;;;28.70;77.90;;;;;;4191673;28;20025;-61
2021/07/06 08:24:08;;;;;;;5.68;3.20;;;28.80;77.40;;;;;;4190493;28;20727;-60
2021/07/06 08:26:09;;;;;;;6.15;3.35;;;29.00;76.80;;;;;;4191602;28;20085;-62
2021/07/06 08:28:11;;;;;;;6.13;3.30;;;29.00;77.10;;;;;;4190411;28;20028;-62
2021/07/06 08:30:12;;;;;;;8.45;3.40;;;29.00;76.80;;;;;;4191980;28;20846;-59
2021/07/06 08:32:14;;;;;;;9.88;3.60;;;29.00;76.80;;;;;;4190371;28;20052;-61
2021/07/06 08:34:15;;;;;;;8.40;3.75;;;29.00;76.20;;;;;;4190828;28;20117;-60
2021/07/06 08:36:16;;;;;;;7.50;3.58;;;28.80;76.40;;;;;;4190263;28;20448;-60
2021/07/06 08:38:17;;;;;;;5.80;3.20;;;28.80;76.50;;;;;;4191482;28;20060;-60
2021/07/06 08:40:19;;;;;;;9.80;3.80;;;28.90;76.40;;;;;;4190208;28;20056;-60
2021/07/06 08:42:20;;;;;;;2.92;2.67;;;29.00;76.30;;;;;;4190843;28;20438;-60
2021/07/06 08:44:21;;;;;;;5.70;3.25;;;28.90;76.00;;;;;;4191122;28;20066;-61
2021/07/06 08:46:22;;;;;;;4.43;3.50;;;28.60;76.00;;;;;;4190476;28;20381;-60
2021/07/06 08:48:24;;;;;;;4.65;3.03;;;28.50;76.30;;;;;;4191152;28;20021;-60
2021/07/06 08:50:26;;;;;;;3.80;2.95;;;28.40;77.20;;;;;;4190377;28;20036;-61
2021/07/06 08:52:29;;;;;;;4.32;3.92;;;28.20;76.90;;;;;;4190913;28;20037;-61
2021/07/06 08:54:30;;;;;;;6.35;3.60;;;28.10;77.10;;;;;;4190510;28;20565;-60
2021/07/06 08:56:31;;;;;;;7.50;3.67;;;28.10;77.00;;;;;;4191234;28;20032;-61
2021/07/06 08:58:32;;;;;;;13.77;4.55;;;28.50;77.00;;;;;;4190180;28;20106;-61
2021/07/06 09:00:33;;;;;;;5.43;3.53;;;28.70;76.70;;;;;;4191144;28;20044;-59
2021/07/06 09:02:35;;;;;;;6.20;3.05;;;28.60;76.70;;;;;;4189797;28;21692;-61
2021/07/06 09:04:52;;;;;;;5.40;3.22;;;28.70;76.80;;;;;;4191085;28;20032;-61
2021/07/06 09:06:55;;;;;;;4.65;3.38;;;28.80;76.10;;;;;;4189554;28;20044;-60
2021/07/06 09:09:26;;;;;;;3.40;3.10;;;28.90;76.10;;;;;;4190577;28;20432;-61
2021/07/06 09:11:27;;;;;;;4.68;3.28;;;28.70;75.90;;;;;;4189561;28;20437;-61
2021/07/06 09:13:32;;;;;;;4.40;2.30;;;28.80;76.70;;;;;;4190747;28;20037;-60
2021/07/06 09:15:33;;;;;;;4.10;2.85;;;28.90;75.90;;;;;;4190175;28;20028;-61
2021/07/06 09:17:34;;;;;;;4.18;3.05;;;28.80;75.80;;;;;;4190466;28;20085;-61
2021/07/06 09:19:36;;;;;;;5.15;3.10;;;28.90;75.70;;;;;;4189422;28;20020;-61
2021/07/06 09:21:37;;;;;;;4.43;3.33;;;29.00;76.40;;;;;;4190803;28;20033;-61
2021/07/06 09:23:44;;;;;;;4.00;3.15;;;29.20;76.80;;;;;;4189734;28;20382;-61
2021/07/06 09:25:46;;;;;;;3.58;3.05;;;29.20;76.10;;;;;;4190478;28;20024;-62
2021/07/06 09:27:47;;;;;;;4.05;3.25;;;29.20;76.00;;;;;;4189776;28;20085;-61
2021/07/06 09:30:13;;;;;;;3.80;2.85;;;29.20;75.20;;;;;;4189927;28;20044;-61
2021/07/06 09:32:23;;;;;;;3.78;3.00;;;29.20;74.30;;;;;;4188811;28;20090;-61
2021/07/06 09:34:24;;;;;;;5.13;2.90;;;29.30;73.50;;;;;;4190680;28;20055;-62
2021/07/06 09:36:47;;;;;;;5.32;3.30;;;29.30;74.70;;;;;;4189403;28;20093;-61
2021/07/06 09:39:02;;;;;;;5.43;3.47;;;29.40;75.20;;;;;;4190488;28;20439;-62
2021/07/06 09:41:18;;;;;;;4.93;3.38;;;29.40;75.00;;;;;;4189559;28;20040;-61
2021/07/06 09:43:20;;;;;;;10.60;3.90;;;29.60;74.10;;;;;;4190736;28;20040;-62
2021/07/06 09:45:22;;;;;;;4.78;2.67;;;29.70;74.30;;;;;;4189618;28;20025;-61
2021/07/06 09:47:24;;;;;;;4.55;3.22;;;29.60;74.30;;;;;;4189128;28;20040;-61
2021/07/06 09:49:31;;;;;;;9.00;4.00;;;29.70;74.80;;;;;;4189189;28;20040;-61
2021/07/06 09:51:39;;;;;;;11.18;4.72;;;29.70;74.60;;;;;;4188239;28;20036;-61
2021/07/06 09:53:40;;;;;;;4.65;2.70;;;29.60;74.50;;;;;;4189700;28;20066;-62
2021/07/06 09:55:41;;;;;;;3.60;3.10;;;29.50;74.90;;;;;;4189869;28;20477;-62
2021/07/06 09:57:43;;;;;;;3.30;2.88;;;29.40;75.20;;;;;;4189484;28;20110;-62
2021/07/06 10:00:06;;;;;;;4.72;3.65;;;29.30;75.20;;;;;;4189220;28;20086;-62
2021/07/06 10:02:09;;;;;;;6.75;3.92;;;29.10;75.50;;;;;;4189877;28;20120;-61
2021/07/06 10:04:10;;;;;;;3.83;3.10;;;29.20;76.10;;;;;;4189317;28;20028;-61
2021/07/06 10:06:12;;;;;;;3.50;3.17;;;29.30;75.90;;;;;;4189594;28;20514;-62
2021/07/06 10:08:13;;;;;;;3.85;3.05;;;29.30;75.70;;;;;;4189408;28;20041;-62
2021/07/06 10:10:15;;;;;;;3.33;3.00;;;29.10;75.60;;;;;;4189906;28;20477;-62
2021/07/06 10:12:17;;;;;;;3.13;2.83;;;28.80;75.60;;;;;;4188618;28;20484;-61
2021/07/06 10:14:20;;;;;;;4.40;3.50;;;28.60;75.70;;;;;;4190034;28;20432;-62
2021/07/06 10:16:21;;;;;;;5.57;2.83;;;28.70;76.30;;;;;;4188610;28;20104;-61
2021/07/06 10:18:22;;;;;;;3.33;3.03;;;28.90;75.40;;;;;;4190233;28;20044;-61
2021/07/06 10:20:26;;;;;;;3.25;2.42;;;29.00;74.90;;;;;;4188180;28;20093;-62
2021/07/06 10:22:27;;;;;;;6.78;2.90;;;29.00;74.00;;;;;;4189481;28;20028;-61
2021/07/06 10:24:28;;;;;;;4.28;2.75;;;28.80;74.70;;;;;;4188670;28;20070;-62
2021/07/06 10:26:30;;;;;;;3.42;2.47;;;28.60;75.10;;;;;;4189738;28;20040;-61
2021/07/06 10:28:32;;;;;;;3.25;2.88;;;28.70;75.60;;;;;;4188388;28;20505;-60
2021/07/06 10:30:46;;;;;;;3.30;3.00;;;28.90;75.60;;;;;;4189775;28;20040;-61
2021/07/06 10:32:57;;;;;;;2.85;2.65;;;29.10;76.00;;;;;;4188894;28;20064;-61
2021/07/06 10:34:58;;;;;;;3.97;2.70;;;29.20;75.40;;;;;;4189669;28;20085;-61
2021/07/06 10:36:59;;;;;;;6.55;3.20;;;29.30;74.90;;;;;;4188046;28;20090;-61
2021/07/06 10:39:00;;;;;;;4.88;3.55;;;29.10;73.00;;;;;;4189194;28;20430;-61
2021/07/06 10:41:41;;;;;;;2.72;2.53;;;29.10;73.70;;;;;;4189060;28;20108;-61
2021/07/06 10:43:43;;;;;;;3.13;2.50;;;28.80;70.70;;;;;;4189622;28;20059;-62
2021/07/06 10:45:44;;;;;;;3.58;2.70;;;28.40;73.20;;;;;;4188696;28;20110;-61
2021/07/06 10:47:50;;;;;;;7.65;2.70;;;28.50;73.80;;;;;;4189340;28;20484;-61
2021/07/06 10:49:51;;;;;;;2.72;2.53;;;28.40;74.10;;;;;;4187270;28;20044;-61
2021/07/06 10:51:54;;;;;;;4.18;2.92;;;28.60;74.90;;;;;;4188890;28;20036;-61
2021/07/06 10:54:09;;;;;;;3.22;2.90;;;28.80;74.80;;;;;;4189060;28;20028;-59
2021/07/06 10:56:12;;;;;;;3.20;2.65;;;29.00;75.10;;;;;;4188918;28;20439;-61
2021/07/06 10:58:51;;;;;;;3.10;2.55;;;29.10;75.00;;;;;;4188668;28;20033;-61